Paradise, MI (49768)

6:10 AM EDT on August 29, 2015 (GMT -0400)
APRSWXNET | | Change Station
CLOSE
Current Station
Personal Weather Station
Location: Paradise, MI
Elevation: 643 ft
Nearby Weather Stations

Elev 643 ft 46.61 °N, 85.04 °W | Updated 26 minutes ago

Overcast
Overcast
64 °F
Feels Like 64 °F
N
2
Wind Variable Wind from SW
Gusts 8.0 mph

Today
High -- | Low -- °F
--% Chance of Precip.
Yesterday
High -- | Low -- °F
Precip. -- in
6:56 AM 8:25 PM
Full, 100% visible
Pressure 30.04 in
Visibility 10.0 miles
Clouds Mostly Cloudy 800 ft
Overcast 6500 ft
Dew Point 62 °F
Humidity 94%
Rainfall in
Snow Depth Not available.
UV 0 out of 12
Pollen 10.00 out of 12
Air Quality Not available.
Flu Activity Not available.
METAR KERY 290954Z AUTO 23008KT 10SM BKN008 OVC065 17/16 A3004 RMK AO2 T01700160
Pressure 30.04 in
Visibility 10.0 miles
Clouds Mostly Cloudy 800 ft
Overcast 6500 ft
Dew Point 62 °F
Humidity 94%
Rainfall in
Snow Depth Not available.
UV 0 out of 12
Pollen 10.00 out of 12
Air Quality Not available.
Flu Activity Not available.
METAR KERY 290954Z AUTO 23008KT 10SM BKN008 OVC065 17/16 A3004 RMK AO2 T01700160
Nowcast | as of 6:00 am EDT on August 29, 2015

At 7 am...cloudy. Chance of rain and slight chance of thunderstorms. Temperature 63. Southwest winds 8 mph. At 9 am...cloudy. Scattered showers. Temperature 63. Southwest winds 8 mph. At 11 am...cloudy. Scattered showers. Temperature 65. Southwest winds 7 mph. At 1 PM...cloudy. Scattered showers. Temperature 68. Southwest winds 7 mph.

×

10-Day Weather Forecast

×

Almanac

Astronomy

Aug. 29, 2015 Rise Set
Actual Time
Civil Twilight
Nautical Twilight
Astronomical Twilight
Moon
Length of Visible Light
Length of Day
Tomorrow will be .
, % of the Moon is Illuminated

Today's Extremes

State Highs State Lows

Community

WunderPhotos

Upload Photos

1,850,633 photos uploaded!

WunderBlogs® & News

Nearby

Air Quality

  Air Quality AQ Index Pollutant
Not available.

Snow Depth

Station Depth Elevation

Earthquake Activity

City Distance Mag. Time & Date
Minimum magnitude displayed is 2.5.

Coastal Water Temperatures

Place Temperature

Stations

Nearby Weather Stations

Station Location Temp. Windchill Dew Point Humidity Wind Precip. Elev Updated Type